Share

Eland, WI

Knopf's House (KWIWESTO2) Elev 1214 ft | 44.91 °N, 89.55 °W | Change Station

Current weather conditions updated 7 minutes ago

Clear
Clear
38.1 °F
Feels Like 38 °F
N
0.0
Wind Variable Wind from WNW
Sunrise 6:07 AM
Sunset 7:46 PM
Moon Waning Gibbous

Tomorrow is forecast to be nearly the same temperature as today. Chance of showers tomorrow night.

Pressure 30.35 in
Visibility 10.0 miles
Clouds Clear
Windchill 38 °F
Dew Point 22 °F
Humidity 51%
Rainfall 0.00 in
Snow Depth Not available.
UV 0 out of 16
Pollen 8.40 out of 12
Air Quality Not available.
Flu Activity Sporadic
METAR KAIG 190115Z AUTO 09003KT 10SM CLR 02/M05 A3035 RMK AO2 T00241048

More Conditions Fewer Conditions

Pressure 30.35 in
Visibility 10.0 miles
Clouds Clear
Windchill 38 °F
Dew Point 22 °F
Humidity 51%
Rainfall 0.00 in
Snow Depth Not available.
UV 0 out of 16
Pollen 8.40 out of 12
Air Quality Not available.
Flu Activity Sporadic
METAR KAIG 190115Z AUTO 09003KT 10SM CLR 02/M05 A3035 RMK AO2 T00241048

More Conditions Fewer Conditions

10-Day Weather Forecast

Almanac

Astronomy

Apr. 18, 2014 Rise Set
Actual Time 6:07 AM CDT 7:46 PM CDT
Civil Twilight 5:36 AM CDT 8:17 PM CDT
Nautical Twilight 4:59 AM CDT 8:54 PM CDT
Astronomical Twilight 4:19 AM CDT 9:35 PM CDT
Moon 11:37 PM CDT (4/18) 8:23 AM CDT (4/18)
Length of Visible Light 14h 40m
Length of Day
13h 38m
Tomorrow will be 2m 56s longer.
Waning Gibbous, 84% of the Moon is Illuminated
Today
Waning Gibbous
Apr 22
Last Quarter
Apr 29
New
May 6
First Quarter
May 14
Full

Today's Extremes

State Highs State Lows

Community

  • Cloudy spring view
    Cloudy spring view
  • Old barn
    Old barn
  • What's for Lunch?
    What's for Lunch?
  • SUNRISE THROUGH THE TREES.
    SUNRISE THROUGH THE TREES.
  • Dog Wood Blossoms
    Dog Wood Blossoms

WunderPhotos

Upload Photos

1,702,570 photos uploaded!

Nearby

Snow Depth

Station Depth Elevation
No new snow has been reported.

Coastal Water Temperatures

Place Temperature
No Stations Reporting

Earthquake Activity

City Distance Mag. Time & Date
No recent earthquake activity has been reported nearby.
Minimum magnitude displayed is 2.5.

Nearby Weather Stations

Station Location Temp. Windchill Dew Point Humidity Wind Precip. Elev Updated Type
Knopf's House, Weston, WI 38.1 °F 38 °F 22 °F 51% WNW  at  0.0 mph - / hr 1214 ft 8:34 PM CDT Normal
Corks Repair, Iola, WI 38.8 °F 39 °F 25 °F 57% ESE  at  0.0 mph 0.00 in / hr 1050 ft 8:41 PM CDT Rapid Fire
Hawthorn Hills Elementary School, Wausau, WI 37.7 °F 38 °F 24 °F 58% ENE  at  0.0 mph 0.00 in / hr 1201 ft 8:41 PM CDT Rapid Fire
WB9GBG, Iola, WI 44.6 °F 42 °F 24 °F 43% NE  at  4.5 mph 0.00 in / hr 1027 ft 9:41 PM EDT Normal
RAWS ANTIGO WI, Antigo, WI 45 °F 45 °F 23 °F 41% SE  at  1 mph 0.00 in / hr 1499 ft 7:05 PM CDT MADIS

Show More Stations Show Fewer Stations

What do you think?

We're not finished. Please let us know what you like, what you don't like, and what you are still missing.